sensor_id;sensor_type;location;lat;lon;timestamp;P1;durP1;ratioP1;P2;durP2;ratioP2
78324;SDS011;67584;51.400;6.692;2024-03-08T00:00:08;13.25;;;8.88;;
78324;SDS011;67584;51.400;6.692;2024-03-08T00:02:38;17.00;;;10.55;;
78324;SDS011;67584;51.400;6.692;2024-03-08T00:05:04;14.70;;;9.70;;
78324;SDS011;67584;51.400;6.692;2024-03-08T00:07:31;15.40;;;11.30;;
78324;SDS011;67584;51.400;6.692;2024-03-08T00:09:57;14.07;;;11.05;;
78324;SDS011;67584;51.400;6.692;2024-03-08T00:12:24;15.35;;;9.77;;
78324;SDS011;67584;51.400;6.692;2024-03-08T00:14:52;16.25;;;10.23;;
78324;SDS011;67584;51.400;6.692;2024-03-08T00:17:19;15.88;;;9.98;;
78324;SDS011;67584;51.400;6.692;2024-03-08T00:19:48;19.10;;;11.18;;
78324;SDS011;67584;51.400;6.692;2024-03-08T00:22:15;17.02;;;11.20;;
78324;SDS011;67584;51.400;6.692;2024-03-08T00:24:41;17.55;;;10.52;;
78324;SDS011;67584;51.400;6.692;2024-03-08T00:27:07;15.20;;;9.40;;
78324;SDS011;67584;51.400;6.692;2024-03-08T00:29:34;15.60;;;10.50;;
78324;SDS011;67584;51.400;6.692;2024-03-08T00:32:00;18.23;;;10.68;;
78324;SDS011;67584;51.400;6.692;2024-03-08T00:34:26;19.60;;;11.40;;
78324;SDS011;67584;51.400;6.692;2024-03-08T00:36:52;16.35;;;10.32;;
78324;SDS011;67584;51.400;6.692;2024-03-08T00:39:18;17.75;;;10.52;;
78324;SDS011;67584;51.400;6.692;2024-03-08T00:41:46;17.15;;;10.95;;
78324;SDS011;67584;51.400;6.692;2024-03-08T00:44:12;17.80;;;11.45;;
78324;SDS011;67584;51.400;6.692;2024-03-08T00:46:38;18.05;;;10.80;;
78324;SDS011;67584;51.400;6.692;2024-03-08T00:49:04;15.43;;;10.00;;
78324;SDS011;67584;51.400;6.692;2024-03-08T00:51:29;18.70;;;11.30;;
78324;SDS011;67584;51.400;6.692;2024-03-08T00:53:55;16.55;;;10.88;;
78324;SDS011;67584;51.400;6.692;2024-03-08T00:56:20;15.25;;;10.18;;
78324;SDS011;67584;51.400;6.692;2024-03-08T00:58:46;17.65;;;10.60;;
78324;SDS011;67584;51.400;6.692;2024-03-08T01:01:15;14.77;;;9.57;;
78324;SDS011;67584;51.400;6.692;2024-03-08T01:03:42;16.02;;;10.15;;
78324;SDS011;67584;51.400;6.692;2024-03-08T01:06:08;15.57;;;9.80;;
78324;SDS011;67584;51.400;6.692;2024-03-08T01:08:34;16.92;;;11.05;;
78324;SDS011;67584;51.400;6.692;2024-03-08T01:11:00;15.48;;;10.50;;
78324;SDS011;67584;51.400;6.692;2024-03-08T01:13:25;15.52;;;10.32;;
78324;SDS011;67584;51.400;6.692;2024-03-08T01:15:51;17.40;;;11.48;;
78324;SDS011;67584;51.400;6.692;2024-03-08T01:18:16;17.90;;;10.98;;
78324;SDS011;67584;51.400;6.692;2024-03-08T01:20:42;17.38;;;10.88;;
78324;SDS011;67584;51.400;6.692;2024-03-08T01:23:08;15.80;;;10.55;;
78324;SDS011;67584;51.400;6.692;2024-03-08T01:25:34;19.40;;;10.65;;
78324;SDS011;67584;51.400;6.692;2024-03-08T01:27:59;19.50;;;11.15;;
78324;SDS011;67584;51.400;6.692;2024-03-08T01:30:25;19.75;;;11.77;;
78324;SDS011;67584;51.400;6.692;2024-03-08T01:32:51;17.77;;;11.32;;
78324;SDS011;67584;51.400;6.692;2024-03-08T01:35:16;21.75;;;12.43;;
78324;SDS011;67584;51.400;6.692;2024-03-08T01:37:43;20.45;;;11.50;;
78324;SDS011;67584;51.400;6.692;2024-03-08T01:40:09;17.92;;;12.07;;
78324;SDS011;67584;51.400;6.692;2024-03-08T01:42:35;18.42;;;10.52;;
78324;SDS011;67584;51.400;6.692;2024-03-08T01:45:04;18.80;;;11.20;;
78324;SDS011;67584;51.400;6.692;2024-03-08T01:47:34;19.38;;;12.38;;
78324;SDS011;67584;51.400;6.692;2024-03-08T01:50:00;20.77;;;12.13;;
78324;SDS011;67584;51.400;6.692;2024-03-08T01:52:31;17.08;;;10.57;;
78324;SDS011;67584;51.400;6.692;2024-03-08T01:55:02;17.10;;;10.75;;
78324;SDS011;67584;51.400;6.692;2024-03-08T01:57:32;20.80;;;11.23;;
78324;SDS011;67584;51.400;6.692;2024-03-08T01:59:59;16.65;;;10.50;;
78324;SDS011;67584;51.400;6.692;2024-03-08T02:02:34;17.13;;;11.43;;
78324;SDS011;67584;51.400;6.692;2024-03-08T02:05:02;18.30;;;11.13;;
78324;SDS011;67584;51.400;6.692;2024-03-08T02:07:28;18.10;;;11.70;;
78324;SDS011;67584;51.400;6.692;2024-03-08T02:09:54;19.40;;;11.43;;
78324;SDS011;67584;51.400;6.692;2024-03-08T02:12:19;20.63;;;11.77;;
78324;SDS011;67584;51.400;6.692;2024-03-08T02:14:48;17.55;;;10.95;;
78324;SDS011;67584;51.400;6.692;2024-03-08T02:17:13;22.35;;;11.70;;
78324;SDS011;67584;51.400;6.692;2024-03-08T02:19:39;19.17;;;11.32;;
78324;SDS011;67584;51.400;6.692;2024-03-08T02:22:05;18.40;;;11.30;;
78324;SDS011;67584;51.400;6.692;2024-03-08T02:24:32;18.92;;;10.27;;
78324;SDS011;67584;51.400;6.692;2024-03-08T02:26:58;18.75;;;11.32;;
78324;SDS011;67584;51.400;6.692;2024-03-08T02:29:24;19.95;;;12.23;;
78324;SDS011;67584;51.400;6.692;2024-03-08T02:31:53;18.17;;;11.20;;
78324;SDS011;67584;51.400;6.692;2024-03-08T02:34:18;22.75;;;12.18;;
78324;SDS011;67584;51.400;6.692;2024-03-08T02:36:45;20.38;;;12.13;;
78324;SDS011;67584;51.400;6.692;2024-03-08T02:39:12;22.80;;;12.82;;
78324;SDS011;67584;51.400;6.692;2024-03-08T02:41:37;19.95;;;11.07;;
78324;SDS011;67584;51.400;6.692;2024-03-08T02:44:03;17.58;;;11.32;;
78324;SDS011;67584;51.400;6.692;2024-03-08T02:46:29;16.77;;;11.20;;
78324;SDS011;67584;51.400;6.692;2024-03-08T02:48:55;19.83;;;11.93;;
78324;SDS011;67584;51.400;6.692;2024-03-08T02:51:21;20.50;;;12.02;;
78324;SDS011;67584;51.400;6.692;2024-03-08T02:53:46;19.42;;;12.90;;
78324;SDS011;67584;51.400;6.692;2024-03-08T02:56:14;20.73;;;12.30;;
78324;SDS011;67584;51.400;6.692;2024-03-08T02:58:41;25.73;;;14.05;;
78324;SDS011;67584;51.400;6.692;2024-03-08T03:01:08;20.27;;;11.68;;
78324;SDS011;67584;51.400;6.692;2024-03-08T03:03:35;20.05;;;11.52;;
78324;SDS011;67584;51.400;6.692;2024-03-08T03:06:01;22.48;;;12.07;;
78324;SDS011;67584;51.400;6.692;2024-03-08T03:08:27;19.92;;;12.00;;
78324;SDS011;67584;51.400;6.692;2024-03-08T03:10:53;20.70;;;12.30;;
78324;SDS011;67584;51.400;6.692;2024-03-08T03:13:21;19.60;;;12.65;;
78324;SDS011;67584;51.400;6.692;2024-03-08T03:15:47;24.13;;;12.32;;
78324;SDS011;67584;51.400;6.692;2024-03-08T03:18:13;19.17;;;11.23;;
78324;SDS011;67584;51.400;6.692;2024-03-08T03:20:38;18.42;;;11.68;;
78324;SDS011;67584;51.400;6.692;2024-03-08T03:23:08;19.23;;;11.35;;
78324;SDS011;67584;51.400;6.692;2024-03-08T03:25:34;20.02;;;12.50;;
78324;SDS011;67584;51.400;6.692;2024-03-08T03:28:03;21.27;;;13.15;;
78324;SDS011;67584;51.400;6.692;2024-03-08T03:30:29;17.60;;;11.73;;
78324;SDS011;67584;51.400;6.692;2024-03-08T03:32:59;19.33;;;12.02;;
78324;SDS011;67584;51.400;6.692;2024-03-08T03:35:26;20.55;;;11.60;;
78324;SDS011;67584;51.400;6.692;2024-03-08T03:37:54;19.77;;;11.55;;
78324;SDS011;67584;51.400;6.692;2024-03-08T03:40:41;17.70;;;11.70;;
78324;SDS011;67584;51.400;6.692;2024-03-08T03:43:07;19.75;;;12.43;;
78324;SDS011;67584;51.400;6.692;2024-03-08T03:45:35;23.48;;;12.20;;
78324;SDS011;67584;51.400;6.692;2024-03-08T03:48:06;21.40;;;12.07;;
78324;SDS011;67584;51.400;6.692;2024-03-08T03:50:34;19.38;;;11.93;;
78324;SDS011;67584;51.400;6.692;2024-03-08T03:53:00;22.13;;;12.05;;
78324;SDS011;67584;51.400;6.692;2024-03-08T03:55:27;22.88;;;12.18;;
78324;SDS011;67584;51.400;6.692;2024-03-08T03:57:54;20.20;;;12.07;;
78324;SDS011;67584;51.400;6.692;2024-03-08T04:00:20;23.10;;;13.25;;
78324;SDS011;67584;51.400;6.692;2024-03-08T04:02:46;20.15;;;11.35;;
78324;SDS011;67584;51.400;6.692;2024-03-08T04:05:12;22.58;;;13.65;;
78324;SDS011;67584;51.400;6.692;2024-03-08T04:07:38;19.73;;;12.15;;
78324;SDS011;67584;51.400;6.692;2024-03-08T04:10:04;21.08;;;12.52;;
78324;SDS011;67584;51.400;6.692;2024-03-08T04:12:32;20.15;;;12.18;;
78324;SDS011;67584;51.400;6.692;2024-03-08T04:14:58;29.27;;;13.75;;
78324;SDS011;67584;51.400;6.692;2024-03-08T04:17:24;20.25;;;11.88;;
78324;SDS011;67584;51.400;6.692;2024-03-08T04:19:50;21.25;;;12.95;;
78324;SDS011;67584;51.400;6.692;2024-03-08T04:22:16;18.60;;;9.50;;
78324;SDS011;67584;51.400;6.692;2024-03-08T04:24:43;21.33;;;12.07;;
78324;SDS011;67584;51.400;6.692;2024-03-08T04:27:09;22.85;;;13.00;;
78324;SDS011;67584;51.400;6.692;2024-03-08T04:29:35;24.60;;;13.82;;
78324;SDS011;67584;51.400;6.692;2024-03-08T04:32:02;21.00;;;13.27;;
78324;SDS011;67584;51.400;6.692;2024-03-08T04:34:29;15.70;;;8.60;;
78324;SDS011;67584;51.400;6.692;2024-03-08T04:36:59;21.25;;;12.50;;
78324;SDS011;67584;51.400;6.692;2024-03-08T04:39:29;21.65;;;13.60;;
78324;SDS011;67584;51.400;6.692;2024-03-08T04:42:02;22.73;;;13.68;;
78324;SDS011;67584;51.400;6.692;2024-03-08T04:44:30;26.60;;;13.98;;
78324;SDS011;67584;51.400;6.692;2024-03-08T04:46:56;17.65;;;11.23;;
78324;SDS011;67584;51.400;6.692;2024-03-08T04:49:22;20.35;;;12.25;;
78324;SDS011;67584;51.400;6.692;2024-03-08T04:51:48;22.67;;;13.43;;
78324;SDS011;67584;51.400;6.692;2024-03-08T04:54:13;21.15;;;12.13;;
78324;SDS011;67584;51.400;6.692;2024-03-08T04:56:39;23.83;;;12.93;;
78324;SDS011;67584;51.400;6.692;2024-03-08T04:59:05;21.75;;;11.52;;
78324;SDS011;67584;51.400;6.692;2024-03-08T05:01:33;21.88;;;13.43;;
78324;SDS011;67584;51.400;6.692;2024-03-08T05:03:59;25.38;;;14.35;;
78324;SDS011;67584;51.400;6.692;2024-03-08T05:06:24;20.58;;;13.00;;
78324;SDS011;67584;51.400;6.692;2024-03-08T05:08:50;24.65;;;13.52;;
78324;SDS011;67584;51.400;6.692;2024-03-08T05:11:16;22.05;;;12.75;;
78324;SDS011;67584;51.400;6.692;2024-03-08T05:13:41;22.20;;;13.10;;
78324;SDS011;67584;51.400;6.692;2024-03-08T05:16:08;18.92;;;11.77;;
78324;SDS011;67584;51.400;6.692;2024-03-08T05:18:34;22.80;;;12.48;;
78324;SDS011;67584;51.400;6.692;2024-03-08T05:21:01;22.30;;;12.75;;
78324;SDS011;67584;51.400;6.692;2024-03-08T05:23:29;25.30;;;13.05;;
78324;SDS011;67584;51.400;6.692;2024-03-08T05:25:55;21.42;;;12.65;;
78324;SDS011;67584;51.400;6.692;2024-03-08T05:28:20;23.40;;;13.13;;
78324;SDS011;67584;51.400;6.692;2024-03-08T05:30:46;24.73;;;13.18;;
78324;SDS011;67584;51.400;6.692;2024-03-08T05:33:12;23.48;;;11.82;;
78324;SDS011;67584;51.400;6.692;2024-03-08T05:35:39;22.30;;;13.10;;
78324;SDS011;67584;51.400;6.692;2024-03-08T05:38:05;19.33;;;12.10;;
78324;SDS011;67584;51.400;6.692;2024-03-08T05:40:32;23.70;;;13.40;;
78324;SDS011;67584;51.400;6.692;2024-03-08T05:42:58;21.55;;;13.23;;
78324;SDS011;67584;51.400;6.692;2024-03-08T05:45:24;22.85;;;14.07;;
78324;SDS011;67584;51.400;6.692;2024-03-08T05:47:50;23.08;;;13.52;;
78324;SDS011;67584;51.400;6.692;2024-03-08T05:50:17;20.38;;;11.95;;
78324;SDS011;67584;51.400;6.692;2024-03-08T05:52:43;23.25;;;15.15;;
78324;SDS011;67584;51.400;6.692;2024-03-08T05:55:08;22.02;;;13.75;;
78324;SDS011;67584;51.400;6.692;2024-03-08T05:57:35;24.50;;;13.68;;
78324;SDS011;67584;51.400;6.692;2024-03-08T06:00:05;26.08;;;13.10;;
78324;SDS011;67584;51.400;6.692;2024-03-08T06:02:38;24.88;;;13.80;;
78324;SDS011;67584;51.400;6.692;2024-03-08T06:05:07;22.42;;;13.57;;
78324;SDS011;67584;51.400;6.692;2024-03-08T06:07:34;24.50;;;13.63;;
78324;SDS011;67584;51.400;6.692;2024-03-08T06:10:00;25.10;;;13.98;;
78324;SDS011;67584;51.400;6.692;2024-03-08T06:12:26;22.35;;;13.65;;
78324;SDS011;67584;51.400;6.692;2024-03-08T06:14:54;24.38;;;13.63;;
78324;SDS011;67584;51.400;6.692;2024-03-08T06:17:19;19.98;;;12.18;;
78324;SDS011;67584;51.400;6.692;2024-03-08T06:19:50;21.77;;;12.73;;
78324;SDS011;67584;51.400;6.692;2024-03-08T06:22:16;28.10;;;13.85;;
78324;SDS011;67584;51.400;6.692;2024-03-08T06:24:42;23.73;;;14.80;;
78324;SDS011;67584;51.400;6.692;2024-03-08T06:27:07;23.95;;;13.60;;
78324;SDS011;67584;51.400;6.692;2024-03-08T06:29:34;23.20;;;13.30;;
78324;SDS011;67584;51.400;6.692;2024-03-08T06:32:00;25.17;;;14.88;;
78324;SDS011;67584;51.400;6.692;2024-03-08T06:34:26;24.73;;;14.27;;
78324;SDS011;67584;51.400;6.692;2024-03-08T06:36:51;28.02;;;14.95;;
78324;SDS011;67584;51.400;6.692;2024-03-08T06:39:17;23.42;;;12.00;;
78324;SDS011;67584;51.400;6.692;2024-03-08T06:41:43;26.55;;;14.77;;
78324;SDS011;67584;51.400;6.692;2024-03-08T06:44:09;26.33;;;13.27;;
78324;SDS011;67584;51.400;6.692;2024-03-08T06:46:35;25.83;;;14.25;;
78324;SDS011;67584;51.400;6.692;2024-03-08T06:49:01;27.45;;;13.70;;
78324;SDS011;67584;51.400;6.692;2024-03-08T06:51:28;24.98;;;14.57;;
78324;SDS011;67584;51.400;6.692;2024-03-08T06:53:54;24.40;;;13.73;;
78324;SDS011;67584;51.400;6.692;2024-03-08T06:56:19;26.20;;;13.73;;
78324;SDS011;67584;51.400;6.692;2024-03-08T06:58:45;26.20;;;13.85;;
78324;SDS011;67584;51.400;6.692;2024-03-08T07:01:11;25.48;;;14.30;;
78324;SDS011;67584;51.400;6.692;2024-03-08T07:06:10;26.65;;;12.75;;
78324;SDS011;67584;51.400;6.692;2024-03-08T07:08:36;23.33;;;14.27;;
78324;SDS011;67584;51.400;6.692;2024-03-08T07:11:02;25.38;;;13.25;;
78324;SDS011;67584;51.400;6.692;2024-03-08T07:13:28;20.05;;;11.20;;
78324;SDS011;67584;51.400;6.692;2024-03-08T07:15:54;30.02;;;15.23;;
78324;SDS011;67584;51.400;6.692;2024-03-08T07:18:20;22.83;;;13.82;;
78324;SDS011;67584;51.400;6.692;2024-03-08T07:20:47;24.98;;;15.25;;
78324;SDS011;67584;51.400;6.692;2024-03-08T07:23:14;25.33;;;14.70;;
78324;SDS011;67584;51.400;6.692;2024-03-08T07:26:00;20.38;;;11.45;;
78324;SDS011;67584;51.400;6.692;2024-03-08T07:28:26;24.98;;;13.20;;
78324;SDS011;67584;51.400;6.692;2024-03-08T07:30:52;23.00;;;12.07;;
78324;SDS011;67584;51.400;6.692;2024-03-08T07:33:26;25.83;;;14.15;;
78324;SDS011;67584;51.400;6.692;2024-03-08T07:35:52;24.52;;;13.75;;
78324;SDS011;67584;51.400;6.692;2024-03-08T07:38:18;25.58;;;13.80;;
78324;SDS011;67584;51.400;6.692;2024-03-08T07:40:46;19.50;;;11.65;;
78324;SDS011;67584;51.400;6.692;2024-03-08T07:43:13;23.38;;;12.25;;
78324;SDS011;67584;51.400;6.692;2024-03-08T07:45:38;22.75;;;14.00;;
78324;SDS011;67584;51.400;6.692;2024-03-08T07:48:05;23.38;;;13.57;;
78324;SDS011;67584;51.400;6.692;2024-03-08T07:50:36;24.38;;;13.05;;
78324;SDS011;67584;51.400;6.692;2024-03-08T07:53:05;20.15;;;12.52;;
78324;SDS011;67584;51.400;6.692;2024-03-08T07:55:32;22.17;;;13.38;;
78324;SDS011;67584;51.400;6.692;2024-03-08T07:57:59;26.55;;;14.18;;
78324;SDS011;67584;51.400;6.692;2024-03-08T08:00:25;27.77;;;14.18;;
78324;SDS011;67584;51.400;6.692;2024-03-08T08:02:52;19.42;;;12.85;;
78324;SDS011;67584;51.400;6.692;2024-03-08T08:05:18;23.52;;;13.70;;
78324;SDS011;67584;51.400;6.692;2024-03-08T08:07:44;25.75;;;14.40;;
78324;SDS011;67584;51.400;6.692;2024-03-08T08:10:11;24.92;;;14.00;;
78324;SDS011;67584;51.400;6.692;2024-03-08T08:12:50;26.33;;;15.52;;
78324;SDS011;67584;51.400;6.692;2024-03-08T08:15:19;29.05;;;14.73;;
78324;SDS011;67584;51.400;6.692;2024-03-08T08:17:45;25.33;;;13.70;;
78324;SDS011;67584;51.400;6.692;2024-03-08T08:20:12;26.48;;;12.80;;
78324;SDS011;67584;51.400;6.692;2024-03-08T08:22:38;23.40;;;14.00;;
78324;SDS011;67584;51.400;6.692;2024-03-08T08:25:08;20.75;;;12.50;;
78324;SDS011;67584;51.400;6.692;2024-03-08T08:27:34;18.73;;;12.63;;
78324;SDS011;67584;51.400;6.692;2024-03-08T08:30:02;22.45;;;12.80;;
78324;SDS011;67584;51.400;6.692;2024-03-08T08:32:33;21.25;;;12.75;;
78324;SDS011;67584;51.400;6.692;2024-03-08T08:35:01;21.45;;;13.13;;
78324;SDS011;67584;51.400;6.692;2024-03-08T08:37:27;20.77;;;12.60;;
78324;SDS011;67584;51.400;6.692;2024-03-08T08:39:53;19.83;;;11.70;;
78324;SDS011;67584;51.400;6.692;2024-03-08T08:42:19;24.80;;;13.38;;
78324;SDS011;67584;51.400;6.692;2024-03-08T08:44:45;24.17;;;14.18;;
78324;SDS011;67584;51.400;6.692;2024-03-08T08:47:11;21.02;;;12.57;;
78324;SDS011;67584;51.400;6.692;2024-03-08T08:49:38;23.27;;;14.15;;
78324;SDS011;67584;51.400;6.692;2024-03-08T08:52:04;29.05;;;18.10;;
78324;SDS011;67584;51.400;6.692;2024-03-08T08:54:30;21.48;;;12.93;;
78324;SDS011;67584;51.400;6.692;2024-03-08T08:56:56;18.95;;;11.65;;
78324;SDS011;67584;51.400;6.692;2024-03-08T08:59:22;15.80;;;9.85;;
78324;SDS011;67584;51.400;6.692;2024-03-08T09:01:50;15.98;;;10.07;;
78324;SDS011;67584;51.400;6.692;2024-03-08T09:04:18;17.67;;;11.55;;
78324;SDS011;67584;51.400;6.692;2024-03-08T09:06:45;17.23;;;11.68;;
78324;SDS011;67584;51.400;6.692;2024-03-08T09:09:10;16.55;;;11.35;;
78324;SDS011;67584;51.400;6.692;2024-03-08T09:11:38;19.60;;;12.27;;
78324;SDS011;67584;51.400;6.692;2024-03-08T09:14:06;21.30;;;11.98;;
78324;SDS011;67584;51.400;6.692;2024-03-08T09:16:32;15.13;;;11.00;;
78324;SDS011;67584;51.400;6.692;2024-03-08T09:18:58;19.52;;;11.73;;
78324;SDS011;67584;51.400;6.692;2024-03-08T09:21:24;17.17;;;11.98;;
78324;SDS011;67584;51.400;6.692;2024-03-08T09:23:52;17.80;;;12.80;;
78324;SDS011;67584;51.400;6.692;2024-03-08T09:26:18;18.95;;;12.73;;
78324;SDS011;67584;51.400;6.692;2024-03-08T09:28:44;18.60;;;11.48;;
78324;SDS011;67584;51.400;6.692;2024-03-08T09:31:10;17.13;;;11.30;;
78324;SDS011;67584;51.400;6.692;2024-03-08T09:33:37;17.98;;;11.63;;
78324;SDS011;67584;51.400;6.692;2024-03-08T09:36:04;19.83;;;12.73;;
78324;SDS011;67584;51.400;6.692;2024-03-08T09:38:32;18.55;;;12.75;;
78324;SDS011;67584;51.400;6.692;2024-03-08T09:40:59;21.27;;;14.65;;
78324;SDS011;67584;51.400;6.692;2024-03-08T09:43:27;17.67;;;11.95;;
78324;SDS011;67584;51.400;6.692;2024-03-08T09:45:53;19.92;;;12.63;;
78324;SDS011;67584;51.400;6.692;2024-03-08T09:48:20;19.20;;;13.27;;
78324;SDS011;67584;51.400;6.692;2024-03-08T09:50:48;15.95;;;11.82;;
78324;SDS011;67584;51.400;6.692;2024-03-08T09:53:14;18.15;;;12.55;;
78324;SDS011;67584;51.400;6.692;2024-03-08T09:55:41;17.88;;;10.93;;
78324;SDS011;67584;51.400;6.692;2024-03-08T09:58:10;18.55;;;12.65;;
78324;SDS011;67584;51.400;6.692;2024-03-08T10:00:46;18.38;;;12.10;;
78324;SDS011;67584;51.400;6.692;2024-03-08T10:03:12;18.75;;;13.48;;
78324;SDS011;67584;51.400;6.692;2024-03-08T10:05:40;17.42;;;12.02;;
78324;SDS011;67584;51.400;6.692;2024-03-08T10:08:06;17.35;;;12.48;;
78324;SDS011;67584;51.400;6.692;2024-03-08T10:10:35;18.15;;;12.10;;
78324;SDS011;67584;51.400;6.692;2024-03-08T10:13:07;17.05;;;11.85;;
78324;SDS011;67584;51.400;6.692;2024-03-08T10:15:34;20.27;;;12.45;;
78324;SDS011;67584;51.400;6.692;2024-03-08T10:18:03;18.90;;;12.77;;
78324;SDS011;67584;51.400;6.692;2024-03-08T10:20:32;18.10;;;10.95;;
78324;SDS011;67584;51.400;6.692;2024-03-08T10:22:59;17.98;;;10.68;;
78324;SDS011;67584;51.400;6.692;2024-03-08T10:25:32;19.17;;;12.63;;
78324;SDS011;67584;51.400;6.692;2024-03-08T10:27:58;15.05;;;10.82;;
78324;SDS011;67584;51.400;6.692;2024-03-08T10:30:23;15.50;;;11.48;;
78324;SDS011;67584;51.400;6.692;2024-03-08T10:32:49;15.90;;;10.27;;
78324;SDS011;67584;51.400;6.692;2024-03-08T10:35:16;13.25;;;8.98;;
78324;SDS011;67584;51.400;6.692;2024-03-08T10:37:46;12.77;;;9.48;;
78324;SDS011;67584;51.400;6.692;2024-03-08T10:40:24;12.93;;;9.25;;
78324;SDS011;67584;51.400;6.692;2024-03-08T10:42:54;15.10;;;11.90;;
78324;SDS011;67584;51.400;6.692;2024-03-08T10:45:31;16.88;;;10.82;;
78324;SDS011;67584;51.400;6.692;2024-03-08T10:50:57;14.07;;;10.35;;
78324;SDS011;67584;51.400;6.692;2024-03-08T10:53:24;11.48;;;8.80;;
78324;SDS011;67584;51.400;6.692;2024-03-08T10:58:19;12.27;;;9.45;;
78324;SDS011;67584;51.400;6.692;2024-03-08T11:00:47;11.45;;;8.63;;
78324;SDS011;67584;51.400;6.692;2024-03-08T11:06:05;12.80;;;8.98;;
78324;SDS011;67584;51.400;6.692;2024-03-08T11:08:40;11.30;;;7.88;;
78324;SDS011;67584;51.400;6.692;2024-03-08T11:11:09;13.70;;;9.52;;
78324;SDS011;67584;51.400;6.692;2024-03-08T11:13:59;13.13;;;8.82;;
78324;SDS011;67584;51.400;6.692;2024-03-08T11:19:05;9.63;;;8.13;;
78324;SDS011;67584;51.400;6.692;2024-03-08T11:21:56;10.95;;;8.82;;
78324;SDS011;67584;51.400;6.692;2024-03-08T11:24:26;9.63;;;8.45;;
78324;SDS011;67584;51.400;6.692;2024-03-08T11:26:56;10.35;;;8.07;;
78324;SDS011;67584;51.400;6.692;2024-03-08T11:34:39;10.45;;;8.10;;
78324;SDS011;67584;51.400;6.692;2024-03-08T11:37:17;10.48;;;8.00;;
78324;SDS011;67584;51.400;6.692;2024-03-08T11:39:49;9.98;;;8.30;;
78324;SDS011;67584;51.400;6.692;2024-03-08T11:42:16;9.15;;;7.53;;
78324;SDS011;67584;51.400;6.692;2024-03-08T11:44:47;11.32;;;8.95;;
78324;SDS011;67584;51.400;6.692;2024-03-08T11:47:15;9.02;;;7.57;;
78324;SDS011;67584;51.400;6.692;2024-03-08T11:49:41;9.90;;;8.88;;
78324;SDS011;67584;51.400;6.692;2024-03-08T11:52:12;8.98;;;7.32;;
78324;SDS011;67584;51.400;6.692;2024-03-08T11:54:51;9.77;;;7.43;;
78324;SDS011;67584;51.400;6.692;2024-03-08T11:57:25;10.23;;;7.57;;
78324;SDS011;67584;51.400;6.692;2024-03-08T11:59:53;10.23;;;7.10;;
78324;SDS011;67584;51.400;6.692;2024-03-08T12:02:22;10.00;;;7.10;;
78324;SDS011;67584;51.400;6.692;2024-03-08T12:04:55;8.85;;;7.30;;
78324;SDS011;67584;51.400;6.692;2024-03-08T12:07:25;8.25;;;6.97;;
78324;SDS011;67584;51.400;6.692;2024-03-08T12:12:45;11.50;;;8.50;;
78324;SDS011;67584;51.400;6.692;2024-03-08T12:15:12;9.57;;;6.75;;
78324;SDS011;67584;51.400;6.692;2024-03-08T12:17:40;8.45;;;6.85;;
78324;SDS011;67584;51.400;6.692;2024-03-08T12:20:17;9.40;;;8.25;;
78324;SDS011;67584;51.400;6.692;2024-03-08T12:22:51;8.82;;;7.47;;
78324;SDS011;67584;51.400;6.692;2024-03-08T12:25:22;10.85;;;9.48;;
78324;SDS011;67584;51.400;6.692;2024-03-08T12:27:51;19.20;;;14.43;;
78324;SDS011;67584;51.400;6.692;2024-03-08T12:30:25;11.13;;;8.65;;
78324;SDS011;67584;51.400;6.692;2024-03-08T12:33:01;10.18;;;7.78;;
78324;SDS011;67584;51.400;6.692;2024-03-08T12:35:27;10.18;;;8.27;;
78324;SDS011;67584;51.400;6.692;2024-03-08T12:37:55;10.30;;;9.30;;
78324;SDS011;67584;51.400;6.692;2024-03-08T12:40:29;11.25;;;10.23;;
78324;SDS011;67584;51.400;6.692;2024-03-08T12:43:07;10.15;;;9.10;;
78324;SDS011;67584;51.400;6.692;2024-03-08T12:45:32;10.60;;;7.60;;
78324;SDS011;67584;51.400;6.692;2024-03-08T12:47:58;9.60;;;7.82;;
78324;SDS011;67584;51.400;6.692;2024-03-08T12:50:24;9.23;;;7.43;;
78324;SDS011;67584;51.400;6.692;2024-03-08T12:52:50;10.82;;;7.28;;
78324;SDS011;67584;51.400;6.692;2024-03-08T12:55:19;9.75;;;8.75;;
78324;SDS011;67584;51.400;6.692;2024-03-08T12:57:45;9.35;;;8.35;;
78324;SDS011;67584;51.400;6.692;2024-03-08T13:00:14;10.10;;;8.30;;
78324;SDS011;67584;51.400;6.692;2024-03-08T13:02:47;8.90;;;8.00;;
78324;SDS011;67584;51.400;6.692;2024-03-08T13:05:12;10.40;;;7.72;;
78324;SDS011;67584;51.400;6.692;2024-03-08T13:07:39;9.45;;;8.18;;
78324;SDS011;67584;51.400;6.692;2024-03-08T13:10:07;8.95;;;7.60;;
78324;SDS011;67584;51.400;6.692;2024-03-08T13:12:34;9.90;;;8.60;;
78324;SDS011;67584;51.400;6.692;2024-03-08T13:15:03;9.50;;;8.35;;
78324;SDS011;67584;51.400;6.692;2024-03-08T13:17:30;7.97;;;6.57;;
78324;SDS011;67584;51.400;6.692;2024-03-08T13:19:55;9.50;;;6.85;;
78324;SDS011;67584;51.400;6.692;2024-03-08T13:22:22;8.10;;;6.65;;
78324;SDS011;67584;51.400;6.692;2024-03-08T13:24:49;9.80;;;8.80;;
78324;SDS011;67584;51.400;6.692;2024-03-08T13:27:17;8.50;;;7.60;;
78324;SDS011;67584;51.400;6.692;2024-03-08T13:29:47;10.30;;;8.10;;
78324;SDS011;67584;51.400;6.692;2024-03-08T13:32:14;8.18;;;6.68;;
78324;SDS011;67584;51.400;6.692;2024-03-08T13:34:41;9.32;;;8.43;;
78324;SDS011;67584;51.400;6.692;2024-03-08T13:37:08;8.73;;;7.20;;
78324;SDS011;67584;51.400;6.692;2024-03-08T13:39:35;9.00;;;7.75;;
78324;SDS011;67584;51.400;6.692;2024-03-08T13:42:12;9.27;;;7.80;;
78324;SDS011;67584;51.400;6.692;2024-03-08T13:44:47;9.35;;;8.35;;
78324;SDS011;67584;51.400;6.692;2024-03-08T13:47:18;8.80;;;7.57;;
78324;SDS011;67584;51.400;6.692;2024-03-08T13:49:44;8.88;;;7.93;;
78324;SDS011;67584;51.400;6.692;2024-03-08T13:52:10;8.88;;;7.97;;
78324;SDS011;67584;51.400;6.692;2024-03-08T13:54:37;7.68;;;6.97;;
78324;SDS011;67584;51.400;6.692;2024-03-08T13:57:03;8.52;;;7.18;;
78324;SDS011;67584;51.400;6.692;2024-03-08T13:59:30;8.15;;;7.35;;
78324;SDS011;67584;51.400;6.692;2024-03-08T14:01:58;8.07;;;6.85;;
78324;SDS011;67584;51.400;6.692;2024-03-08T14:09:22;9.07;;;7.65;;
78324;SDS011;67584;51.400;6.692;2024-03-08T14:11:54;8.32;;;6.97;;
78324;SDS011;67584;51.400;6.692;2024-03-08T14:14:21;10.43;;;8.80;;
78324;SDS011;67584;51.400;6.692;2024-03-08T14:16:48;8.65;;;7.63;;
78324;SDS011;67584;51.400;6.692;2024-03-08T14:19:18;8.30;;;7.32;;
78324;SDS011;67584;51.400;6.692;2024-03-08T14:21:44;8.90;;;7.57;;
78324;SDS011;67584;51.400;6.692;2024-03-08T14:24:10;8.77;;;7.45;;
78324;SDS011;67584;51.400;6.692;2024-03-08T14:26:35;8.05;;;7.25;;
78324;SDS011;67584;51.400;6.692;2024-03-08T14:33:56;9.40;;;8.25;;
78324;SDS011;67584;51.400;6.692;2024-03-08T14:36:23;8.57;;;7.57;;
78324;SDS011;67584;51.400;6.692;2024-03-08T14:38:50;9.40;;;7.97;;
78324;SDS011;67584;51.400;6.692;2024-03-08T14:41:16;9.25;;;8.25;;
78324;SDS011;67584;51.400;6.692;2024-03-08T14:43:42;7.82;;;7.03;;
78324;SDS011;67584;51.400;6.692;2024-03-08T14:48:45;9.13;;;8.13;;
78324;SDS011;67584;51.400;6.692;2024-03-08T14:51:21;9.57;;;7.05;;
78324;SDS011;67584;51.400;6.692;2024-03-08T14:53:51;10.05;;;7.65;;
78324;SDS011;67584;51.400;6.692;2024-03-08T14:56:18;9.55;;;7.47;;
78324;SDS011;67584;51.400;6.692;2024-03-08T14:58:44;9.52;;;7.15;;
78324;SDS011;67584;51.400;6.692;2024-03-08T15:01:11;9.25;;;8.27;;
78324;SDS011;67584;51.400;6.692;2024-03-08T15:03:39;10.05;;;8.20;;